Time;durP1;ratioP1;P1;durP2;ratioP2;P2;SDS_P1;SDS_P2;PMS_P1;PMS_P2;Temp;Humidity;BMP_temperature;BMP_pressure;BME280_temperature;BME280_humidity;BME280_pressure;Samples;Min_cycle;Max_cycle;Signal;HPM_P1;HPM_P2
2024/04/04 00:00:06;;;;;;;4.00;1.90;;;358.80;2329.60;;;;;;5030562;28;20021;-72
2024/04/04 00:02:32;;;;;;;4.00;2.25;;;358.70;2329.60;;;;;;5030309;28;20398;-72
2024/04/04 00:05:03;;;;;;;5.05;2.20;;;358.70;2329.60;;;;;;5029636;28;20030;-72
2024/04/04 00:07:29;;;;;;;4.15;2.10;;;358.70;2329.60;;;;;;5029407;28;20665;-73
2024/04/04 00:09:55;;;;;;;4.72;1.95;;;358.60;2329.60;;;;;;5025974;28;20536;-73
2024/04/04 00:12:21;;;;;;;5.13;1.80;;;358.60;2329.60;;;;;;5031868;28;20033;-71
2024/04/04 00:14:48;;;;;;;4.55;1.55;;;358.50;2329.60;;;;;;5033261;28;20405;-74
2024/04/04 00:17:14;;;;;;;3.22;1.75;;;358.60;2329.60;;;;;;5015103;28;20029;-71
2024/04/04 00:19:40;;;;;;;3.58;1.67;;;358.50;2329.60;;;;;;5032762;28;20017;-73
2024/04/04 00:22:06;;;;;;;4.95;1.52;;;358.60;2329.60;;;;;;5031744;28;20540;-73
2024/04/04 00:24:31;;;;;;;4.22;1.50;;;358.60;2329.60;;;;;;5032198;28;20060;-71
2024/04/04 00:26:58;;;;;;;5.25;1.65;;;358.60;2329.60;;;;;;5031691;28;20025;-74
2024/04/04 00:29:24;;;;;;;4.43;1.85;;;358.50;2329.60;;;;;;5031738;28;20454;-74
2024/04/04 00:31:50;;;;;;;6.90;2.05;;;333.70;2329.60;;;;;;5031648;28;20026;-74
2024/04/04 00:34:16;;;;;;;5.78;1.98;;;358.50;2329.60;;;;;;5031139;28;20036;-73
2024/04/04 00:36:42;;;;;;;4.97;1.85;;;358.50;2329.60;;;;;;5032913;28;20021;-74
2024/04/04 00:39:08;;;;;;;6.10;2.50;;;358.70;2329.60;;;;;;5031546;28;20033;-74
2024/04/04 00:41:35;;;;;;;7.80;3.10;;;358.40;2329.60;;;;;;5030945;28;20037;-73
2024/04/04 00:44:00;;;;;;;6.72;2.38;;;358.40;2329.60;;;;;;5030953;28;20076;-73
2024/04/04 00:46:26;;;;;;;9.82;3.47;;;358.40;2329.60;;;;;;5031525;28;20370;-74
2024/04/04 00:48:54;;;;;;;12.73;5.65;;;358.40;2329.60;;;;;;5031454;28;20037;-75
2024/04/04 00:51:21;;;;;;;10.38;5.25;;;358.40;2329.60;;;;;;5031533;28;20493;-74
2024/04/04 00:53:47;;;;;;;7.20;3.20;;;358.40;2329.60;;;;;;5030573;28;20035;-74
2024/04/04 00:56:12;;;;;;;6.30;2.97;;;333.70;2329.60;;;;;;5024187;28;20032;-71
2024/04/04 00:58:39;;;;;;;4.68;1.90;;;333.70;2329.60;;;;;;5031573;28;20508;-74
2024/04/04 01:01:04;;;;;;;3.25;1.63;;;358.40;2329.60;;;;;;5031446;28;20853;-74
2024/04/04 01:03:30;;;;;;;6.10;1.60;;;333.70;2329.60;;;;;;5012501;28;20121;-70
2024/04/04 01:05:56;;;;;;;3.72;1.50;;;333.60;2329.60;;;;;;5030452;28;20036;-71
2024/04/04 01:08:22;;;;;;;4.13;1.75;;;333.50;2329.60;;;;;;5029843;28;20080;-71
2024/04/04 01:10:48;;;;;;;4.32;1.70;;;333.50;2329.60;;;;;;5029456;28;20030;-71
2024/04/04 01:13:15;;;;;;;4.28;1.63;;;333.50;2329.60;;;;;;5020220;28;20036;-71
2024/04/04 01:15:41;;;;;;;3.75;1.50;;;333.60;2329.60;;;;;;5009839;28;20034;-71
2024/04/04 01:18:07;;;;;;;3.45;1.60;;;333.60;2329.60;;;;;;5009711;28;20022;-70
2024/04/04 01:20:36;;;;;;;3.03;1.42;;;333.60;2329.60;;;;;;5010958;28;20143;-74
2024/04/04 01:23:02;;;;;;;5.18;1.30;;;333.70;2329.60;;;;;;5024051;28;20099;-71
2024/04/04 01:25:28;;;;;;;4.22;1.40;;;333.60;2329.60;;;;;;5013588;28;20033;-73
2024/04/04 01:27:54;;;;;;;2.40;1.15;;;333.70;2304.00;;;;;;5011718;28;20475;-73
2024/04/04 01:30:19;;;;;;;2.45;1.10;;;333.60;2278.40;;;;;;5010882;28;20034;-72
2024/04/04 01:32:48;;;;;;;4.32;1.50;;;333.70;2278.40;;;;;;5023043;28;20030;-73
2024/04/04 01:35:14;;;;;;;2.60;1.42;;;333.70;2252.80;;;;;;5023916;28;20022;-72
2024/04/04 01:37:40;;;;;;;3.20;1.60;;;333.60;2252.80;;;;;;5025269;28;20033;-73
2024/04/04 01:40:08;;;;;;;4.97;1.60;;;333.60;2278.40;;;;;;5032086;28;20022;-75
2024/04/04 01:42:34;;;;;;;2.83;1.50;;;333.60;2304.00;;;;;;5013284;28;20041;-73
2024/04/04 01:45:00;;;;;;;2.72;1.20;;;333.50;2329.60;;;;;;5031305;28;20025;-74
2024/04/04 01:47:26;;;;;;;3.58;1.50;;;333.50;2329.60;;;;;;5030905;28;20412;-74
2024/04/04 01:49:52;;;;;;;3.95;1.50;;;333.40;2329.60;;;;;;5031363;28;20025;-74
2024/04/04 01:52:17;;;;;;;3.47;1.30;;;333.50;2329.60;;;;;;5031092;28;20021;-73
2024/04/04 01:54:43;;;;;;;3.88;1.23;;;333.40;2329.60;;;;;;5029354;28;20039;-73
2024/04/04 01:57:09;;;;;;;3.67;1.35;;;333.40;2329.60;;;;;;5024100;28;20090;-71
2024/04/04 01:59:35;;;;;;;3.05;1.48;;;333.50;2329.60;;;;;;5010232;28;20022;-75
2024/04/04 02:02:01;;;;;;;2.35;1.40;;;333.40;2329.60;;;;;;5020893;28;20025;-72
2024/04/04 02:04:26;;;;;;;3.35;1.33;;;333.30;2329.60;;;;;;5029298;28;20494;-73
2024/04/04 02:06:52;;;;;;;3.53;1.50;;;333.30;2329.60;;;;;;5030842;28;20049;-71
2024/04/04 02:09:20;;;;;;;3.95;1.38;;;333.30;2329.60;;;;;;5031251;28;20033;-72
2024/04/04 02:11:46;;;;;;;3.83;1.38;;;333.30;2329.60;;;;;;5033812;28;20021;-74
2024/04/04 02:14:12;;;;;;;2.95;1.40;;;333.20;2329.60;;;;;;5034737;28;20399;-74
2024/04/04 02:16:39;;;;;;;5.40;1.50;;;333.10;2329.60;;;;;;5034520;28;20029;-74
2024/04/04 02:19:06;;;;;;;4.18;1.73;;;333.10;2329.60;;;;;;5034172;28;20040;-73
2024/04/04 02:21:32;;;;;;;5.72;2.00;;;333.10;2329.60;;;;;;5034754;28;20715;-71
2024/04/04 02:23:58;;;;;;;3.30;1.63;;;333.20;2329.60;;;;;;5029665;28;20030;-71
2024/04/04 02:26:24;;;;;;;6.43;1.52;;;333.10;2329.60;;;;;;5014893;28;20026;-73
2024/04/04 02:28:49;;;;;;;2.75;1.40;;;333.00;2329.60;;;;;;5014201;28;20052;-73
2024/04/04 02:31:15;;;;;;;4.90;1.70;;;333.00;2329.60;;;;;;5019461;28;20029;-73
2024/04/04 02:33:41;;;;;;;3.38;1.40;;;333.00;2329.60;;;;;;5019336;28;20026;-74
2024/04/04 02:36:07;;;;;;;3.25;1.30;;;333.00;2329.60;;;;;;5029248;28;20030;-73
2024/04/04 02:38:33;;;;;;;2.58;1.30;;;333.00;2329.60;;;;;;5034750;28;20486;-72
2024/04/04 02:40:59;;;;;;;4.15;1.50;;;332.90;2329.60;;;;;;5033913;28;20083;-71
2024/04/04 02:43:25;;;;;;;3.33;1.60;;;332.90;2329.60;;;;;;5034916;28;20079;-73
2024/04/04 02:46:01;;;;;;;4.15;1.65;;;332.90;2329.60;;;;;;5031987;28;20022;-73
2024/04/04 02:48:27;;;;;;;4.40;1.45;;;332.90;2329.60;;;;;;5027084;28;20021;-71
2024/04/04 02:50:57;;;;;;;3.55;1.50;;;332.90;2329.60;;;;;;5022524;28;20034;-73
2024/04/04 02:53:23;;;;;;;2.63;1.35;;;332.90;2329.60;;;;;;5015672;28;20365;-73
2024/04/04 02:55:59;;;;;;;3.10;1.30;;;332.90;2329.60;;;;;;5033583;28;20029;-73
2024/04/04 02:58:28;;;;;;;3.42;1.60;;;333.00;2329.60;;;;;;5033579;28;20053;-72
2024/04/04 03:00:54;;;;;;;4.72;1.83;;;333.00;2329.60;;;;;;5034023;28;20139;-74
2024/04/04 03:03:20;;;;;;;4.13;1.70;;;333.00;2329.60;;;;;;5033475;28;20125;-74
2024/04/04 03:05:46;;;;;;;3.25;1.50;;;333.00;2329.60;;;;;;5032835;28;20029;-71
2024/04/04 03:08:13;;;;;;;3.92;1.58;;;333.00;2329.60;;;;;;5030820;28;20676;-73
2024/04/04 03:10:40;;;;;;;4.63;1.65;;;332.90;2329.60;;;;;;5033436;28;20022;-73
2024/04/04 03:13:06;;;;;;;3.65;1.50;;;332.90;2329.60;;;;;;5033258;28;20021;-72
2024/04/04 03:15:32;;;;;;;5.47;1.65;;;332.90;2329.60;;;;;;5034010;28;20032;-70
2024/04/04 03:18:00;;;;;;;5.47;1.90;;;332.90;2329.60;;;;;;5033420;28;20025;-73
2024/04/04 03:20:26;;;;;;;4.38;1.50;;;332.90;2329.60;;;;;;5033894;28;20399;-74
2024/04/04 03:22:52;;;;;;;4.53;1.77;;;332.90;2329.60;;;;;;5027951;28;20044;-73
2024/04/04 03:25:17;;;;;;;4.03;1.60;;;332.90;2329.60;;;;;;5033492;28;20386;-72
2024/04/04 03:27:43;;;;;;;3.67;1.50;;;332.80;2329.60;;;;;;5033435;28;20032;-74
2024/04/04 03:30:10;;;;;;;2.90;1.42;;;332.80;2329.60;;;;;;5031674;28;20029;-71
2024/04/04 03:32:37;;;;;;;4.20;1.48;;;332.90;2329.60;;;;;;5032708;28;20037;-73
2024/04/04 03:35:03;;;;;;;3.63;1.40;;;332.90;2329.60;;;;;;5033051;28;20108;-74
2024/04/04 03:37:31;;;;;;;3.45;1.50;;;308.10;2304.00;;;;;;5029895;28;20030;-72
2024/04/04 03:39:58;;;;;;;4.93;1.40;;;308.10;2304.00;;;;;;5027457;28;20025;-72
2024/04/04 03:42:24;;;;;;;2.80;1.50;;;332.80;2329.60;;;;;;5026520;28;20045;-73
2024/04/04 03:44:51;;;;;;;5.88;1.50;;;308.10;2304.00;;;;;;5032896;28;20032;-73
2024/04/04 03:47:17;;;;;;;3.72;1.40;;;308.10;2304.00;;;;;;5026147;28;20036;-71
2024/04/04 03:49:42;;;;;;;3.85;1.30;;;308.10;2304.00;;;;;;5031631;28;20030;-73
2024/04/04 03:52:08;;;;;;;3.55;1.30;;;308.10;2304.00;;;;;;5031394;28;20033;-71
2024/04/04 03:54:34;;;;;;;2.80;1.27;;;308.00;2304.00;;;;;;5031065;28;20370;-70
2024/04/04 03:57:00;;;;;;;3.60;1.10;;;308.00;2304.00;;;;;;5026291;28;20053;-70
2024/04/04 03:59:26;;;;;;;3.15;1.17;;;308.00;2304.00;;;;;;5018376;28;20024;-72
2024/04/04 04:01:53;;;;;;;4.60;1.20;;;308.00;2304.00;;;;;;5025870;28;20048;-73
2024/04/04 04:04:19;;;;;;;5.55;1.23;;;308.00;2304.00;;;;;;5013005;28;20458;-73
2024/04/04 04:06:45;;;;;;;4.30;1.20;;;308.00;2304.00;;;;;;5017781;28;20025;-73
2024/04/04 04:09:11;;;;;;;4.82;1.38;;;308.00;2304.00;;;;;;5032455;28;20041;-73
2024/04/04 04:11:37;;;;;;;4.90;1.30;;;308.00;2304.00;;;;;;5032145;28;20490;-71
2024/04/04 04:14:03;;;;;;;4.38;1.30;;;308.00;2304.00;;;;;;5031971;28;20040;-72
2024/04/04 04:16:28;;;;;;;3.30;1.27;;;308.00;2304.00;;;;;;5030170;28;20037;-72
2024/04/04 04:18:54;;;;;;;2.97;1.42;;;308.00;2304.00;;;;;;5019410;28;20343;-73
2024/04/04 04:21:24;;;;;;;4.13;1.45;;;308.00;2304.00;;;;;;5027700;28;20035;-73
2024/04/04 04:23:51;;;;;;;3.75;1.20;;;308.00;2304.00;;;;;;5030614;28;20133;-73
2024/04/04 04:26:17;;;;;;;2.85;1.30;;;308.00;2304.00;;;;;;5023198;28;20029;-74
2024/04/04 04:28:44;;;;;;;4.10;1.33;;;308.00;2304.00;;;;;;5004670;28;20045;-73
2024/04/04 04:31:27;;;;;;;4.20;1.65;;;333.20;2329.60;;;;;;5011404;28;20093;-70
2024/04/04 04:33:54;;;;;;;2.67;1.15;;;307.90;2304.00;;;;;;5012028;28;20022;-73
2024/04/04 04:36:22;;;;;;;3.05;1.10;;;307.90;2304.00;;;;;;5019744;28;20047;-72
2024/04/04 04:38:48;;;;;;;5.32;1.33;;;307.90;2304.00;;;;;;5015677;28;20052;-72
2024/04/04 04:41:15;;;;;;;3.92;1.30;;;308.00;2304.00;;;;;;5028802;28;20033;-74
2024/04/04 04:43:46;;;;;;;2.17;1.00;;;308.00;2304.00;;;;;;5033890;28;20129;-73
2024/04/04 04:46:19;;;;;;;4.28;1.40;;;308.00;2304.00;;;;;;5014551;28;20427;-74
2024/04/04 04:48:45;;;;;;;3.00;1.30;;;308.00;2304.00;;;;;;5033023;28;20053;-74
2024/04/04 04:51:11;;;;;;;3.83;1.48;;;307.90;2304.00;;;;;;5033759;28;20029;-74
2024/04/04 04:53:38;;;;;;;4.10;1.30;;;308.00;2304.00;;;;;;5033171;28;20104;-73
2024/04/04 04:56:05;;;;;;;4.28;1.42;;;307.90;2304.00;;;;;;5031497;28;20067;-74
2024/04/04 04:58:31;;;;;;;3.60;1.42;;;308.00;2304.00;;;;;;5024760;28;20018;-73
2024/04/04 05:01:00;;;;;;;5.28;1.40;;;308.00;2304.00;;;;;;5031667;28;20124;-73
2024/04/04 05:03:28;;;;;;;2.78;1.33;;;308.00;2304.00;;;;;;5032748;28;20069;-73
2024/04/04 05:05:54;;;;;;;4.65;1.40;;;308.10;2304.00;;;;;;5032684;28;20017;-73
2024/04/04 05:08:23;;;;;;;3.50;1.52;;;308.10;2304.00;;;;;;5032701;28;20060;-75
2024/04/04 05:10:49;;;;;;;4.97;1.98;;;308.10;2304.00;;;;;;5029231;28;20029;-73
2024/04/04 05:13:15;;;;;;;6.35;1.63;;;308.10;2304.00;;;;;;5020420;28;20037;-75
2024/04/04 05:15:55;;;;;;;3.80;1.40;;;308.10;2304.00;;;;;;5025774;28;20025;-72
2024/04/04 05:18:24;;;;;;;4.07;1.50;;;308.10;2304.00;;;;;;5023393;28;20075;-72
2024/04/04 05:20:59;;;;;;;2.92;1.20;;;308.10;2304.00;;;;;;5032523;28;20427;-73
2024/04/04 05:23:25;;;;;;;2.30;1.20;;;308.10;2304.00;;;;;;5032497;28;20034;-72
2024/04/04 05:25:52;;;;;;;4.07;1.20;;;308.10;2304.00;;;;;;5028546;28;20351;-74
2024/04/04 05:28:17;;;;;;;4.60;1.40;;;308.10;2304.00;;;;;;5026564;28;20025;-71
2024/04/04 05:30:43;;;;;;;4.10;1.20;;;332.80;2329.60;;;;;;5018769;28;20117;-70
2024/04/04 05:33:09;;;;;;;3.60;1.10;;;332.80;2329.60;;;;;;5012006;28;20523;-71
2024/04/04 05:35:34;;;;;;;2.88;1.08;;;332.90;2329.60;;;;;;5021925;28;20363;-71
2024/04/04 05:38:00;;;;;;;4.97;1.50;;;333.00;2329.60;;;;;;5011421;28;20030;-71
2024/04/04 05:40:26;;;;;;;3.30;1.42;;;333.00;2329.60;;;;;;5012478;28;20055;-73
2024/04/04 05:42:53;;;;;;;4.45;1.40;;;333.10;2329.60;;;;;;5024274;28;20521;-73
2024/04/04 05:45:22;;;;;;;5.43;2.40;;;333.10;2329.60;;;;;;5003767;28;20022;-73
2024/04/04 05:47:48;;;;;;;10.07;4.32;;;333.20;2329.60;;;;;;5017285;28;20084;-74
2024/04/04 05:50:14;;;;;;;8.07;2.45;;;333.10;2329.60;;;;;;5023565;28;20056;-73
2024/04/04 05:52:40;;;;;;;3.88;1.63;;;333.40;2329.60;;;;;;5030856;28;20025;-73
2024/04/04 05:55:10;;;;;;;4.82;1.35;;;333.30;2329.60;;;;;;5029747;28;20664;-73
2024/04/04 05:57:36;;;;;;;4.57;1.20;;;333.30;2329.60;;;;;;5010648;28;20438;-74
2024/04/04 06:00:01;;;;;;;3.67;1.30;;;333.30;2329.60;;;;;;5031659;28;20183;-74
2024/04/04 06:02:27;;;;;;;4.75;1.50;;;333.40;2329.60;;;;;;5029944;28;20112;-74
2024/04/04 06:04:53;;;;;;;4.38;1.38;;;333.50;2329.60;;;;;;5028969;28;20029;-73
2024/04/04 06:07:20;;;;;;;7.43;2.03;;;333.60;2329.60;;;;;;5027796;28;20461;-74
2024/04/04 06:09:46;;;;;;;4.85;1.58;;;333.70;2329.60;;;;;;5026292;28;20014;-72
2024/04/04 06:12:12;;;;;;;5.05;1.70;;;358.40;2329.60;;;;;;5032445;28;20033;-73
2024/04/04 06:14:41;;;;;;;4.30;1.67;;;358.50;2329.60;;;;;;5028311;28;20029;-73
2024/04/04 06:17:06;;;;;;;5.25;1.30;;;358.70;2329.60;;;;;;5027636;28;20022;-72
2024/04/04 06:19:32;;;;;;;4.03;1.10;;;359.10;2329.60;;;;;;5025317;28;20032;-72
2024/04/04 06:21:58;;;;;;;4.97;1.42;;;;;;;;;;5015306;28;20034;-72
2024/04/04 06:24:24;;;;;;;10.90;5.95;;;384.00;2329.60;;;;;;5022680;28;20829;-72
2024/04/04 06:26:51;;;;;;;5.85;3.38;;;;;;;;;;5025513;28;20030;-73
2024/04/04 06:29:19;;;;;;;5.68;2.05;;;;;;;;;;5031950;28;20478;-75
2024/04/04 06:31:45;;;;;;;3.42;1.92;;;487.10;1971.20;;;;;;5025310;28;20013;-75
2024/04/04 06:34:12;;;;;;;7.03;1.50;;;563.30;1664.00;;;;;;5030981;28;20025;-73
2024/04/04 06:36:38;;;;;;;4.18;1.30;;;563.40;1664.00;;;;;;5030407;28;20041;-73
2024/04/04 06:39:04;;;;;;;2.67;1.20;;;563.70;1664.00;;;;;;5026701;28;20111;-74
2024/04/04 06:41:32;;;;;;;4.82;1.80;;;538.20;1638.40;;;;;;5028569;28;20072;-74
2024/04/04 06:43:58;;;;;;;3.83;1.30;;;589.70;1510.40;;;;;;5026378;28;20850;-76
2024/04/04 06:46:27;;;;;;;4.32;1.23;;;;;;;;;;5033406;28;20032;-74
2024/04/04 06:48:53;;;;;;;3.97;1.30;;;589.50;1484.80;;;;;;5026921;28;20033;-73
2024/04/04 06:51:18;;;;;;;2.92;1.30;;;563.70;1561.60;;;;;;5027792;28;20029;-74
2024/04/04 06:53:44;;;;;;;3.88;1.55;;;614.50;1459.20;;;;;;5013849;28;20065;-73
2024/04/04 06:56:14;;;;;;;3.08;1.40;;;615.00;1433.60;;;;;;5013037;28;20026;-74
2024/04/04 06:58:39;;;;;;;3.80;1.58;;;589.60;1459.20;;;;;;5023216;28;20032;-73
2024/04/04 07:01:05;;;;;;;3.80;1.35;;;563.50;1561.60;;;;;;5024403;28;20029;-75
2024/04/04 07:03:31;;;;;;;2.70;1.20;;;537.90;1612.80;;;;;;5029041;28;20042;-73
2024/04/04 07:05:57;;;;;;;4.93;1.42;;;512.10;1664.00;;;;;;5026490;28;20028;-74
2024/04/04 07:08:22;;;;;;;3.45;1.40;;;486.70;1766.40;;;;;;5025521;28;20054;-74
2024/04/04 07:10:48;;;;;;;3.58;1.40;;;486.50;1766.40;;;;;;5019417;28;20543;-74
2024/04/04 07:13:15;;;;;;;2.88;1.60;;;487.10;1715.20;;;;;;5021406;28;20033;-74
2024/04/04 07:15:41;;;;;;;3.50;1.60;;;537.90;1612.80;;;;;;5021301;28;20112;-72
2024/04/04 07:18:09;;;;;;;3.72;1.70;;;538.40;1587.20;;;;;;5019712;28;20095;-72
2024/04/04 07:20:36;;;;;;;3.08;1.30;;;538.10;1638.40;;;;;;5017812;28;20029;-72
2024/04/04 07:23:02;;;;;;;2.53;1.58;;;512.80;1638.40;;;;;;5014769;28;20124;-70
2024/04/04 07:25:28;;;;;;;4.10;1.30;;;512.60;1689.60;;;;;;5016796;28;20105;-70
2024/04/04 07:27:54;;;;;;;4.70;2.05;;;487.20;1715.20;;;;;;5023357;28;20080;-70
2024/04/04 07:30:20;;;;;;;3.25;1.20;;;486.70;1792.00;;;;;;5023247;28;20427;-73
2024/04/04 07:32:45;;;;;;;4.07;1.40;;;461.70;1817.60;;;;;;5029452;28;20025;-72
2024/04/04 07:35:11;;;;;;;4.22;1.70;;;461.30;1868.80;;;;;;5023406;28;20025;-72
2024/04/04 07:37:37;;;;;;;2.78;1.50;;;461.20;1894.40;;;;;;5011957;28;20461;-72
2024/04/04 07:40:04;;;;;;;5.72;1.80;;;461.30;1894.40;;;;;;5013186;28;20076;-73
2024/04/04 07:42:30;;;;;;;3.40;1.63;;;461.40;1920.00;;;;;;5026209;28;20039;-73
2024/04/04 07:44:55;;;;;;;6.40;1.60;;;461.60;1920.00;;;;;;5033029;28;20024;-73
2024/04/04 07:47:24;;;;;;;4.20;1.73;;;461.60;1868.80;;;;;;5013771;28;20022;-72
2024/04/04 07:49:50;;;;;;;7.00;2.65;;;461.70;1868.80;;;;;;5026061;28;20026;-73
2024/04/04 07:52:22;;;;;;;3.83;1.60;;;486.60;1868.80;;;;;;5025891;28;20033;-74
2024/04/04 07:54:48;;;;;;;4.70;1.80;;;486.50;1843.20;;;;;;5025236;28;20072;-74
2024/04/04 07:57:14;;;;;;;5.40;1.55;;;486.80;1843.20;;;;;;5012380;28;20057;-75
2024/04/04 07:59:39;;;;;;;4.47;1.70;;;486.70;1817.60;;;;;;5027724;28;20053;-73
2024/04/04 08:02:08;;;;;;;3.25;2.00;;;486.90;1817.60;;;;;;5032189;28;20038;-75
2024/04/04 08:04:34;;;;;;;3.47;1.83;;;487.10;1792.00;;;;;;5028240;28;20114;-73
2024/04/04 08:07:00;;;;;;;2.70;1.20;;;487.20;1792.00;;;;;;5016710;28;20441;-74
2024/04/04 08:09:25;;;;;;;5.13;1.50;;;487.10;1817.60;;;;;;5010256;28;20034;-72
2024/04/04 08:11:52;;;;;;;3.28;1.50;;;487.10;1792.00;;;;;;5010112;28;20040;-73
2024/04/04 08:14:18;;;;;;;1.65;1.00;;;487.00;1792.00;;;;;;5011682;28;20104;-74
2024/04/04 08:16:45;;;;;;;3.85;1.20;;;486.90;1792.00;;;;;;5022663;28;20247;-74
2024/04/04 08:19:14;;;;;;;4.40;1.20;;;487.10;1792.00;;;;;;5022258;28;20120;-74
2024/04/04 08:21:39;;;;;;;2.30;1.00;;;487.30;1766.40;;;;;;5016850;28;20029;-74
2024/04/04 08:24:05;;;;;;;2.72;1.10;;;486.90;1740.80;;;;;;5027828;28;20457;-75
2024/04/04 08:26:31;;;;;;;2.17;1.20;;;487.20;1766.40;;;;;;5022959;28;20106;-71
2024/04/04 08:28:57;;;;;;;2.90;1.40;;;512.20;1766.40;;;;;;5020917;28;20079;-73
2024/04/04 08:31:22;;;;;;;2.92;1.70;;;512.60;1715.20;;;;;;5017775;28;20041;-75
2024/04/04 08:33:48;;;;;;;2.53;1.20;;;512.60;1715.20;;;;;;5021577;28;20092;-76
2024/04/04 08:36:14;;;;;;;2.78;1.20;;;512.80;1715.20;;;;;;5017184;28;20030;-73
2024/04/04 08:38:40;;;;;;;4.13;1.10;;;512.90;1689.60;;;;;;5019788;28;20037;-73
2024/04/04 08:41:08;;;;;;;2.22;0.90;;;537.60;1715.20;;;;;;5015945;28;20025;-73
2024/04/04 08:43:34;;;;;;;2.28;1.10;;;537.60;1715.20;;;;;;5021659;28;20041;-74
2024/04/04 08:46:02;;;;;;;4.22;1.10;;;537.60;1740.80;;;;;;5022583;28;20040;-75
2024/04/04 08:48:28;;;;;;;3.53;0.90;;;537.90;1715.20;;;;;;5022935;28;20030;-74
2024/04/04 08:50:54;;;;;;;1.77;0.90;;;537.90;1664.00;;;;;;5022677;28;20036;-74
2024/04/04 08:53:25;;;;;;;2.28;0.93;;;538.40;1664.00;;;;;;5021580;28;20060;-75
2024/04/04 08:55:54;;;;;;;3.65;1.20;;;563.50;1664.00;;;;;;5028270;28;20024;-71
2024/04/04 08:58:20;;;;;;;2.42;0.90;;;563.50;1638.40;;;;;;5029954;28;20550;-74
2024/04/04 09:00:47;;;;;;;2.90;0.80;;;563.50;1638.40;;;;;;5029505;28;20360;-78
2024/04/04 09:03:13;;;;;;;3.38;1.00;;;563.40;1638.40;;;;;;5032147;28;20037;-72
2024/04/04 09:05:43;;;;;;;4.78;1.50;;;563.50;1612.80;;;;;;5026596;28;20102;-74
2024/04/04 09:08:09;;;;;;;1.95;0.90;;;563.80;1587.20;;;;;;5029841;28;20100;-74
2024/04/04 09:10:36;;;;;;;3.63;0.98;;;563.80;1587.20;;;;;;5031726;28;20029;-74
2024/04/04 09:13:04;;;;;;;3.80;1.10;;;563.70;1587.20;;;;;;5030667;28;20455;-74
2024/04/04 09:15:30;;;;;;;2.47;1.20;;;563.80;1587.20;;;;;;5028784;28;20109;-73
2024/04/04 09:18:06;;;;;;;2.42;1.30;;;564.00;1561.60;;;;;;5030387;28;20034;-75
2024/04/04 09:20:39;;;;;;;2.78;1.50;;;564.10;1536.00;;;;;;5028093;28;20024;-74
2024/04/04 09:23:09;;;;;;;3.17;1.55;;;563.70;1587.20;;;;;;5030083;28;20034;-74
2024/04/04 09:25:35;;;;;;;4.88;1.50;;;588.90;1561.60;;;;;;5011848;28;20013;-73
2024/04/04 09:28:08;;;;;;;2.55;1.02;;;589.00;1536.00;;;;;;5022864;28;20029;-72
2024/04/04 09:30:35;;;;;;;3.17;1.08;;;589.20;1510.40;;;;;;5006487;28;20034;-72
2024/04/04 09:33:03;;;;;;;2.17;1.05;;;589.60;1484.80;;;;;;5034086;28;20040;-74
2024/04/04 09:35:30;;;;;;;1.38;0.90;;;589.20;1510.40;;;;;;5028196;28;20030;-71
2024/04/04 09:37:59;;;;;;;3.95;1.60;;;589.10;1510.40;;;;;;5030738;28;20036;-75
2024/04/04 09:40:26;;;;;;;2.05;0.88;;;589.60;1484.80;;;;;;5031023;28;20025;-75
2024/04/04 09:42:51;;;;;;;3.80;1.10;;;589.10;1484.80;;;;;;5034844;28;20482;-73
2024/04/04 09:45:17;;;;;;;1.75;0.80;;;588.90;1510.40;;;;;;5025886;28;20071;-72
2024/04/04 09:47:47;;;;;;;1.38;0.80;;;589.20;1484.80;;;;;;5023608;28;20148;-71
2024/04/04 09:50:18;;;;;;;2.30;1.00;;;589.30;1484.80;;;;;;5021241;28;20026;-74
2024/04/04 09:52:45;;;;;;;1.80;0.82;;;589.20;1433.60;;;;;;5016875;28;20202;-74
2024/04/04 09:55:16;;;;;;;1.90;0.50;;;589.40;1459.20;;;;;;5029244;28;20014;-72
2024/04/04 09:57:42;;;;;;;3.38;1.15;;;589.70;1459.20;;;;;;5033187;28;20037;-72
2024/04/04 10:00:19;;;;;;;6.75;1.13;;;589.60;1408.00;;;;;;5032930;28;20032;-73
2024/04/04 10:02:56;;;;;;;0.90;0.70;;;614.60;1408.00;;;;;;5033171;28;20040;-74
2024/04/04 10:05:42;;;;;;;2.53;0.77;;;614.60;1382.40;;;;;;5031533;28;20032;-75
2024/04/04 10:08:10;;;;;;;2.40;1.20;;;614.50;1382.40;;;;;;5019976;28;20065;-73
2024/04/04 10:10:36;;;;;;;3.72;0.90;;;589.50;1408.00;;;;;;5014237;28;20466;-73
2024/04/04 10:13:09;;;;;;;2.60;1.10;;;589.50;1433.60;;;;;;5016298;28;20067;-74
2024/04/04 10:15:46;;;;;;;1.65;1.10;;;614.50;1408.00;;;;;;5034138;28;20024;-74
2024/04/04 10:18:13;;;;;;;1.77;0.85;;;614.50;1382.40;;;;;;5034388;28;20033;-75
2024/04/04 10:20:49;;;;;;;1.73;0.70;;;615.20;1382.40;;;;;;5031439;28;20025;-74
2024/04/04 10:23:16;;;;;;;2.85;0.98;;;615.10;1331.20;;;;;;5015217;28;20168;-75
2024/04/04 10:25:43;;;;;;;1.65;0.60;;;615.00;1356.80;;;;;;5015280;28;20017;-72
2024/04/04 10:28:09;;;;;;;2.50;1.00;;;615.10;1382.40;;;;;;5027069;28;20107;-75
2024/04/04 10:30:39;;;;;;;2.97;1.08;;;615.30;1331.20;;;;;;5031654;28;20048;-76
2024/04/04 10:33:09;;;;;;;6.25;1.45;;;615.20;1356.80;;;;;;5030753;28;20029;-73
2024/04/04 10:35:35;;;;;;;2.67;0.90;;;615.20;1382.40;;;;;;5027527;28;20021;-75
2024/04/04 10:38:13;;;;;;;4.90;1.73;;;615.30;1356.80;;;;;;5018683;28;20124;-75
2024/04/04 10:40:41;;;;;;;2.35;0.80;;;640.10;1331.20;;;;;;5032002;28;20048;-75
2024/04/04 10:43:08;;;;;;;2.78;0.95;;;615.20;1356.80;;;;;;5034627;28;20128;-73
2024/04/04 10:45:36;;;;;;;3.00;1.40;;;640.50;1356.80;;;;;;5013951;28;20033;-71
2024/04/04 10:48:02;;;;;;;3.10;1.00;;;640.50;1254.40;;;;;;5032324;28;20107;-73
2024/04/04 10:50:30;;;;;;;2.08;0.75;;;640.60;1280.00;;;;;;5031780;28;20025;-74
2024/04/04 10:52:56;;;;;;;3.00;0.80;;;640.50;1254.40;;;;;;5030047;28;20033;-73
2024/04/04 10:55:24;;;;;;;2.05;0.70;;;640.60;1254.40;;;;;;5033009;28;20028;-71
2024/04/04 10:57:53;;;;;;;2.38;0.80;;;640.30;1254.40;;;;;;5034502;28;20112;-77
2024/04/04 11:00:20;;;;;;;1.70;0.60;;;640.50;1254.40;;;;;;5033959;28;20033;-76
2024/04/04 11:02:53;;;;;;;2.42;0.55;;;640.80;1254.40;;;;;;5016134;28;20395;-75
2024/04/04 11:05:19;;;;;;;1.10;0.60;;;640.70;1228.80;;;;;;5036180;28;20640;-74
2024/04/04 11:07:46;;;;;;;2.15;0.80;;;640.90;1228.80;;;;;;5035786;28;20059;-76
2024/04/04 11:10:19;;;;;;;1.75;0.80;;;640.60;1254.40;;;;;;5046574;28;20078;-78
2024/04/04 11:12:45;;;;;;;1.92;0.70;;;640.70;1254.40;;;;;;5041606;28;20034;-74
2024/04/04 11:15:11;;;;;;;2.53;0.88;;;;;;;;;;5028006;28;20041;-74
2024/04/04 11:17:41;;;;;;;5.05;0.80;;;666.00;1254.40;;;;;;5033634;28;20013;-74
2024/04/04 11:20:19;;;;;;;2.67;1.00;;;640.60;1254.40;;;;;;5030685;28;20014;-74
2024/04/04 11:22:45;;;;;;;2.92;0.70;;;640.30;1305.60;;;;;;5034446;28;20112;-73
2024/04/04 11:25:11;;;;;;;1.75;0.70;;;640.10;1280.00;;;;;;5034268;28;20052;-74
2024/04/04 11:27:38;;;;;;;1.48;0.70;;;640.40;1280.00;;;;;;5023328;28;20034;-73
2024/04/04 11:30:08;;;;;;;1.30;0.80;;;640.10;1305.60;;;;;;5029459;28;20064;-73
2024/04/04 11:32:37;;;;;;;1.55;0.60;;;615.20;1305.60;;;;;;5031904;28;20049;-74
2024/04/04 11:35:08;;;;;;;3.08;1.00;;;640.40;1305.60;;;;;;5024893;28;20384;-72
2024/04/04 11:37:34;;;;;;;2.17;0.63;;;640.80;1254.40;;;;;;5028216;28;20037;-74
2024/04/04 11:40:00;;;;;;;1.23;0.70;;;640.60;1254.40;;;;;;5029842;28;20037;-74
2024/04/04 11:42:26;;;;;;;1.67;0.68;;;640.70;1254.40;;;;;;5021957;28;20045;-76
2024/04/04 11:44:52;;;;;;;1.33;0.68;;;665.60;1254.40;;;;;;5031703;28;20033;-74
2024/04/04 11:47:21;;;;;;;2.60;1.58;;;665.60;1228.80;;;;;;5029402;28;20017;-71
2024/04/04 11:49:46;;;;;;;1.95;0.60;;;640.60;1228.80;;;;;;5023902;28;20040;-73
2024/04/04 11:52:12;;;;;;;1.42;0.60;;;640.40;1203.20;;;;;;5031587;28;20390;-72
2024/04/04 11:54:38;;;;;;;1.13;0.60;;;640.40;1228.80;;;;;;5030550;28;20510;-73
2024/04/04 11:57:03;;;;;;;1.15;0.40;;;640.10;1254.40;;;;;;5024338;28;20026;-71
2024/04/04 11:59:29;;;;;;;3.63;0.90;;;640.60;1254.40;;;;;;5023491;28;20071;-71
2024/04/04 12:01:55;;;;;;;1.23;0.68;;;665.80;1254.40;;;;;;5005647;28;20036;-74
2024/04/04 12:04:25;;;;;;;1.10;0.60;;;665.80;1228.80;;;;;;5007958;28;20034;-73
2024/04/04 12:06:51;;;;;;;1.50;0.70;;;665.80;1228.80;;;;;;4993824;28;20026;-71
2024/04/04 12:09:17;;;;;;;1.05;0.52;;;691.20;1356.80;;;;;;5018840;28;20402;-71
2024/04/04 12:11:43;;;;;;;3.00;0.90;;;666.10;1152.00;;;;;;5029548;28;20021;-70
2024/04/04 12:14:09;;;;;;;2.50;0.80;;;666.40;1177.60;;;;;;5028617;28;20057;-68
2024/04/04 12:16:35;;;;;;;1.80;0.50;;;666.20;1177.60;;;;;;5023489;28;20083;-68